Weather at Priština Adem Jashari International Airport

Public forecast

Using degrees Celsius for public forecast. Weather courtesy of forecast.io.

Current aviation weather report (METAR) for Priština Adem Jashari International Airport

Retrieved 2022/01/23 08:30 UTC (0 seconds ago):

BKPR 230830Z 00000KT 9999 BKN040 M05/M09 Q1025 NOSIG

Aviation forecast (TAF) for Priština Adem Jashari International Airport

Retrieved 2022/01/23 06:35 UTC (2 hours ago):

TAF BKPR 230535Z 2306/2406 35008KT 9999 SCT050 PROB30 TEMPO 2318/2402 5000 -SN BR BKN015 BKN030